Time;durP1;ratioP1;P1;durP2;ratioP2;P2;SDS_P1;SDS_P2;PMS_P1;PMS_P2;Temp;Humidity;BMP_temperature;BMP_pressure;BME280_temperature;BME280_humidity;BME280_pressure;Samples;Min_cycle;Max_cycle;Signal;HPM_P1;HPM_P2
2023/08/12 00:01:56;;;;;;;10.40;2.83;;;19.30;99.90;;;;;;5035985;28;20213;-70
2023/08/12 00:04:22;;;;;;;6.28;2.53;;;19.20;99.90;;;;;;5038332;28;20422;-70
2023/08/12 00:06:48;;;;;;;8.48;2.85;;;19.30;99.90;;;;;;5038144;28;20049;-71
2023/08/12 00:09:15;;;;;;;6.18;3.25;;;19.20;99.90;;;;;;5021660;28;20037;-72
2023/08/12 00:11:41;;;;;;;7.68;4.25;;;19.20;99.90;;;;;;5020968;28;20053;-72
2023/08/12 00:14:07;;;;;;;10.15;4.60;;;19.20;99.90;;;;;;5021604;28;20643;-71
2023/08/12 00:16:33;;;;;;;8.63;5.25;;;19.30;99.90;;;;;;5037161;28;20487;-72
2023/08/12 00:18:58;;;;;;;8.10;4.93;;;19.20;99.90;;;;;;5038015;28;20044;-73
2023/08/12 00:21:25;;;;;;;9.77;5.32;;;19.20;99.90;;;;;;5037588;28;20045;-70
2023/08/12 00:23:51;;;;;;;6.90;4.35;;;19.30;99.90;;;;;;5021341;28;20131;-71
2023/08/12 00:26:17;;;;;;;7.38;4.78;;;19.20;99.90;;;;;;5038171;28;20144;-70
2023/08/12 00:28:43;;;;;;;10.88;4.72;;;21.50;99.90;;;;;;5038280;28;20102;-70
2023/08/12 00:31:08;;;;;;;8.80;4.65;;;19.20;99.90;;;;;;5038352;28;20049;-73
2023/08/12 00:33:34;;;;;;;8.02;4.40;;;19.10;99.90;;;;;;5038511;28;20053;-72
2023/08/12 00:36:00;;;;;;;6.63;4.38;;;19.00;99.90;;;;;;5020281;28;20056;-71
2023/08/12 00:38:26;;;;;;;8.68;4.18;;;19.00;99.90;;;;;;5020083;28;20095;-72
2023/08/12 00:40:51;;;;;;;7.68;4.50;;;19.00;99.90;;;;;;5036332;28;20557;-71
2023/08/12 00:43:17;;;;;;;6.60;4.10;;;19.00;99.90;;;;;;5036485;28;20048;-70
2023/08/12 00:45:44;;;;;;;7.90;4.63;;;19.00;99.90;;;;;;5020245;28;20060;-71
2023/08/12 00:48:10;;;;;;;8.23;4.28;;;19.00;99.90;;;;;;5020509;28;20063;-70
2023/08/12 00:50:37;;;;;;;6.28;3.88;;;18.90;99.90;;;;;;5037132;28;21070;-71
2023/08/12 00:53:05;;;;;;;8.63;4.07;;;18.90;99.90;;;;;;5021372;28;20202;-71
2023/08/12 00:55:33;;;;;;;4.85;3.50;;;18.90;99.90;;;;;;5021378;28;20059;-72
2023/08/12 00:57:59;;;;;;;7.50;3.60;;;18.90;99.90;;;;;;5037858;28;20056;-73
2023/08/12 01:00:25;;;;;;;8.13;3.50;;;18.90;99.90;;;;;;5020666;28;20056;-70
2023/08/12 01:02:52;;;;;;;8.85;4.15;;;18.80;99.90;;;;;;5020730;28;20422;-72
2023/08/12 01:05:19;;;;;;;11.68;3.58;;;18.80;99.90;;;;;;5014384;28;20076;-71
2023/08/12 01:07:46;;;;;;;6.95;3.75;;;18.80;99.90;;;;;;5020801;28;20430;-71
2023/08/12 01:10:15;;;;;;;7.32;3.38;;;18.80;99.90;;;;;;5036487;28;20944;-71
2023/08/12 01:12:56;;;;;;;7.65;3.53;;;18.80;99.90;;;;;;5036424;28;20048;-72
2023/08/12 01:15:24;;;;;;;12.52;3.45;;;18.80;99.90;;;;;;5041924;28;20053;-71
2023/08/12 01:17:53;;;;;;;8.25;4.13;;;18.70;99.90;;;;;;5036891;28;20049;-71
2023/08/12 01:20:26;;;;;;;5.30;3.72;;;18.70;99.90;;;;;;5036802;28;20048;-69
2023/08/12 01:23:14;;;;;;;6.88;4.07;;;18.70;99.90;;;;;;5018495;28;20080;-73
2023/08/12 01:25:41;;;;;;;6.20;4.10;;;18.70;99.90;;;;;;5018794;28;20053;-69
2023/08/12 01:28:07;;;;;;;8.20;4.13;;;18.70;99.90;;;;;;5020859;28;20053;-71
2023/08/12 01:30:40;;;;;;;12.35;4.70;;;18.70;99.90;;;;;;5039548;28;20053;-72
2023/08/12 01:33:30;;;;;;;9.00;4.88;;;18.60;99.90;;;;;;5039545;28;20111;-71
2023/08/12 01:36:09;;;;;;;6.80;3.85;;;18.60;99.90;;;;;;5037507;28;20110;-70
2023/08/12 01:38:38;;;;;;;7.95;4.55;;;18.60;99.90;;;;;;5041482;28;20045;-72
2023/08/12 01:41:04;;;;;;;10.07;4.93;;;18.60;99.90;;;;;;5024217;28;20502;-71
2023/08/12 01:43:30;;;;;;;8.98;5.03;;;18.50;99.90;;;;;;5040880;28;20056;-71
2023/08/12 01:45:56;;;;;;;6.70;4.75;;;18.60;99.90;;;;;;5039941;28;20060;-69
2023/08/12 01:48:23;;;;;;;14.15;5.45;;;18.50;99.90;;;;;;5039942;28;20537;-71
2023/08/12 01:50:48;;;;;;;7.13;4.82;;;18.50;99.90;;;;;;5023110;28;20153;-72
2023/08/12 01:53:14;;;;;;;7.85;4.50;;;18.40;99.90;;;;;;5023112;28;20180;-70
2023/08/12 01:55:43;;;;;;;10.75;5.68;;;18.40;99.90;;;;;;5039629;28;20053;-70
2023/08/12 01:58:09;;;;;;;8.38;4.55;;;18.40;99.90;;;;;;5039778;28;20056;-71
2023/08/12 02:00:35;;;;;;;10.38;5.43;;;18.30;99.90;;;;;;5039653;28;20053;-73
2023/08/12 02:03:00;;;;;;;7.95;4.60;;;18.20;99.90;;;;;;5023462;28;20360;-72
2023/08/12 02:05:26;;;;;;;10.23;5.47;;;18.30;99.90;;;;;;5039862;28;20519;-72
2023/08/12 02:07:52;;;;;;;10.40;5.97;;;18.20;99.90;;;;;;5040491;28;20041;-71
2023/08/12 02:10:18;;;;;;;9.23;4.97;;;18.20;99.90;;;;;;5038930;28;20048;-71
2023/08/12 02:12:43;;;;;;;12.32;6.10;;;18.10;99.90;;;;;;5038065;28;20045;-73
2023/08/12 02:15:09;;;;;;;10.40;7.03;;;18.10;99.90;;;;;;5038448;28;20568;-70
2023/08/12 02:17:35;;;;;;;13.52;6.93;;;18.10;99.90;;;;;;5022242;28;21193;-71
2023/08/12 02:20:01;;;;;;;10.60;6.60;;;18.10;99.90;;;;;;5021905;28;20048;-72
2023/08/12 02:22:27;;;;;;;9.57;6.68;;;18.10;99.90;;;;;;5038925;28;20059;-72
2023/08/12 02:24:53;;;;;;;12.50;6.95;;;18.20;99.90;;;;;;5022840;28;20103;-72
2023/08/12 02:27:18;;;;;;;10.00;7.22;;;18.20;99.90;;;;;;5023813;28;20059;-71
2023/08/12 02:29:44;;;;;;;10.95;7.68;;;18.20;99.90;;;;;;5023377;28;20568;-70
2023/08/12 02:32:10;;;;;;;13.85;8.65;;;18.30;99.90;;;;;;5039982;28;20037;-70
2023/08/12 02:34:36;;;;;;;15.90;8.05;;;18.30;99.90;;;;;;5039580;28;20048;-71
2023/08/12 02:37:02;;;;;;;10.88;6.78;;;20.30;99.90;;;;;;5035204;28;20055;-74
2023/08/12 02:39:28;;;;;;;13.68;8.77;;;18.40;99.90;;;;;;5019598;28;20500;-72
2023/08/12 02:41:53;;;;;;;12.73;7.82;;;18.40;99.90;;;;;;5021352;28;20059;-72
2023/08/12 02:44:19;;;;;;;13.85;8.48;;;18.40;99.90;;;;;;5037858;28;20045;-70
2023/08/12 02:46:45;;;;;;;15.23;9.50;;;18.40;99.90;;;;;;5037898;28;20044;-70
2023/08/12 02:49:11;;;;;;;12.82;8.88;;;18.50;99.90;;;;;;5037422;28;20044;-71
2023/08/12 02:51:36;;;;;;;17.30;10.15;;;18.50;99.90;;;;;;5037841;28;20055;-72
2023/08/12 02:54:02;;;;;;;14.43;9.88;;;18.50;99.90;;;;;;5037887;28;20041;-70
2023/08/12 02:56:28;;;;;;;13.30;9.35;;;18.50;99.90;;;;;;5039341;28;20075;-71
2023/08/12 02:58:54;;;;;;;13.60;9.23;;;18.60;99.90;;;;;;5039024;28;20080;-71
2023/08/12 03:01:21;;;;;;;16.73;10.20;;;18.60;99.90;;;;;;5040302;28;20144;-74
2023/08/12 03:03:46;;;;;;;17.50;10.50;;;18.60;99.90;;;;;;5028036;28;20044;-73
2023/08/12 03:06:12;;;;;;;13.82;10.13;;;18.60;99.90;;;;;;5059122;28;20920;-71
2023/08/12 03:08:38;;;;;;;13.40;9.95;;;18.60;99.90;;;;;;5059080;28;20059;-71
2023/08/12 03:11:04;;;;;;;19.00;9.50;;;18.50;99.90;;;;;;5058238;28;20058;-71
2023/08/12 03:13:30;;;;;;;19.58;10.13;;;18.50;99.90;;;;;;5041645;28;20063;-73
2023/08/12 03:15:56;;;;;;;16.40;11.07;;;18.60;99.90;;;;;;5042277;28;20074;-72
2023/08/12 03:18:22;;;;;;;14.38;10.50;;;18.60;99.90;;;;;;5058696;28;20703;-70
2023/08/12 03:20:48;;;;;;;17.85;10.38;;;18.60;99.90;;;;;;5042059;28;20036;-72
2023/08/12 03:23:14;;;;;;;16.48;10.35;;;18.60;99.90;;;;;;5058654;28;20048;-71
2023/08/12 03:25:40;;;;;;;20.67;10.77;;;18.50;99.90;;;;;;5045334;28;20063;-72
2023/08/12 03:28:06;;;;;;;18.95;12.15;;;18.50;99.90;;;;;;5059001;28;20056;-72
2023/08/12 03:30:31;;;;;;;15.77;10.90;;;18.60;99.90;;;;;;5058859;28;20048;-73
2023/08/12 03:32:57;;;;;;;17.05;11.02;;;18.50;99.90;;;;;;5058713;28;20417;-70
2023/08/12 03:35:23;;;;;;;21.27;13.23;;;18.60;99.90;;;;;;5059341;28;20051;-71
2023/08/12 03:37:51;;;;;;;23.67;12.65;;;18.60;99.90;;;;;;5042606;28;20059;-70
2023/08/12 03:40:16;;;;;;;17.60;11.60;;;18.60;99.90;;;;;;5052420;28;20045;-70
2023/08/12 03:42:42;;;;;;;16.75;11.52;;;18.50;99.90;;;;;;5058897;28;20059;-70
2023/08/12 03:45:08;;;;;;;21.17;12.32;;;18.50;99.90;;;;;;5042075;28;20053;-70
2023/08/12 03:47:34;;;;;;;23.48;12.25;;;18.60;99.90;;;;;;5053747;28;20048;-72
2023/08/12 03:50:00;;;;;;;21.13;13.05;;;18.50;99.90;;;;;;5058475;28;20124;-71
2023/08/12 03:52:25;;;;;;;21.90;12.82;;;18.60;99.90;;;;;;5058246;28;20512;-72
2023/08/12 03:54:52;;;;;;;17.52;12.18;;;18.50;99.90;;;;;;5058028;28;20044;-70
2023/08/12 03:57:18;;;;;;;21.13;12.63;;;18.50;99.90;;;;;;5058609;28;21256;-70
2023/08/12 03:59:44;;;;;;;21.02;13.02;;;18.50;99.90;;;;;;5042061;28;20051;-70
2023/08/12 04:02:10;;;;;;;18.98;12.05;;;18.50;99.90;;;;;;5057889;28;20494;-70
2023/08/12 04:04:36;;;;;;;19.13;12.60;;;18.50;99.90;;;;;;5041956;28;20770;-70
2023/08/12 04:07:02;;;;;;;16.13;11.40;;;18.50;99.90;;;;;;5058456;28;20102;-71
2023/08/12 04:09:27;;;;;;;18.85;13.82;;;18.60;99.90;;;;;;5042582;28;20151;-73
2023/08/12 04:11:53;;;;;;;21.83;13.20;;;18.50;99.90;;;;;;5057788;28;20132;-71
2023/08/12 04:14:19;;;;;;;22.55;12.88;;;18.50;99.90;;;;;;5041667;28;20394;-70
2023/08/12 04:16:45;;;;;;;18.20;12.60;;;19.50;99.90;;;;;;5056227;28;20051;-73
2023/08/12 04:19:10;;;;;;;17.55;11.63;;;18.60;99.90;;;;;;5057806;28;20044;-72
2023/08/12 04:21:36;;;;;;;23.65;13.05;;;18.60;99.90;;;;;;5056153;28;20397;-70
2023/08/12 04:24:02;;;;;;;19.02;12.75;;;18.60;99.90;;;;;;5057879;28;20045;-70
2023/08/12 04:26:28;;;;;;;20.75;13.15;;;18.70;99.90;;;;;;5057731;28;20052;-71
2023/08/12 04:28:53;;;;;;;19.33;12.32;;;18.60;99.90;;;;;;5058029;28;20157;-73
2023/08/12 04:31:19;;;;;;;21.90;13.95;;;18.60;99.90;;;;;;5057281;28;20134;-70
2023/08/12 04:33:45;;;;;;;17.65;12.63;;;18.70;99.90;;;;;;5057989;28;20794;-71
2023/08/12 04:36:11;;;;;;;19.42;13.20;;;18.80;99.90;;;;;;5055237;28;20044;-72
2023/08/12 04:38:36;;;;;;;25.15;14.75;;;18.70;99.90;;;;;;5057785;28;20048;-73
2023/08/12 04:41:02;;;;;;;22.63;14.45;;;18.80;99.90;;;;;;5040643;28;20079;-72
2023/08/12 04:43:28;;;;;;;22.60;13.48;;;18.80;99.90;;;;;;5057502;28;20098;-72
2023/08/12 04:45:53;;;;;;;20.35;13.40;;;18.80;99.90;;;;;;5055132;28;20168;-72
2023/08/12 04:48:19;;;;;;;19.77;13.70;;;18.80;99.90;;;;;;5057571;28;20528;-71
2023/08/12 04:50:45;;;;;;;19.13;12.98;;;18.80;99.90;;;;;;5040986;28;20045;-71
2023/08/12 04:53:11;;;;;;;20.83;14.63;;;18.90;99.90;;;;;;5040801;28;20048;-71
2023/08/12 04:55:38;;;;;;;21.95;13.40;;;18.90;99.90;;;;;;5040747;28;20057;-72
2023/08/12 04:58:04;;;;;;;21.55;13.32;;;18.90;99.90;;;;;;5049420;28;20096;-73
2023/08/12 05:00:30;;;;;;;19.38;13.35;;;18.90;99.90;;;;;;5039668;28;20041;-72
2023/08/12 05:02:55;;;;;;;22.15;12.55;;;18.90;99.90;;;;;;5029174;28;20082;-73
2023/08/12 05:05:21;;;;;;;17.60;12.32;;;18.90;99.90;;;;;;5056077;28;20060;-70
2023/08/12 05:07:50;;;;;;;20.35;13.25;;;18.90;99.90;;;;;;5031368;28;20133;-72
2023/08/12 05:10:16;;;;;;;17.02;12.48;;;18.90;99.90;;;;;;5055919;28;20899;-72
2023/08/12 05:12:47;;;;;;;19.35;13.40;;;18.90;99.90;;;;;;5055188;28;20044;-71
2023/08/12 05:15:13;;;;;;;21.23;13.63;;;19.00;99.90;;;;;;5049201;28;20139;-74
2023/08/12 05:17:38;;;;;;;17.60;12.55;;;18.90;99.90;;;;;;5055776;28;20059;-72
2023/08/12 05:20:05;;;;;;;20.30;13.60;;;19.00;99.90;;;;;;5056743;28;20822;-71
2023/08/12 05:22:31;;;;;;;21.52;12.20;;;18.90;99.90;;;;;;5057083;28;20561;-71
2023/08/12 05:24:57;;;;;;;20.75;12.93;;;18.90;99.90;;;;;;5043318;28;20174;-73
2023/08/12 05:27:22;;;;;;;23.98;14.43;;;19.00;99.90;;;;;;5056680;28;20056;-73
2023/08/12 05:29:48;;;;;;;19.38;13.13;;;19.00;99.90;;;;;;5040109;28;20581;-71
2023/08/12 05:32:14;;;;;;;20.08;14.30;;;19.00;99.90;;;;;;5040164;28;20071;-73
2023/08/12 05:34:40;;;;;;;21.55;14.15;;;19.00;99.90;;;;;;5054939;28;20787;-70
2023/08/12 05:37:05;;;;;;;19.45;13.77;;;19.10;99.90;;;;;;5057047;28;20642;-70
2023/08/12 05:39:31;;;;;;;24.05;14.05;;;19.10;99.90;;;;;;5056367;28;20849;-72
2023/08/12 05:41:57;;;;;;;23.02;13.88;;;19.10;99.90;;;;;;5056331;28;20048;-73
2023/08/12 05:44:22;;;;;;;18.90;13.75;;;19.30;99.90;;;;;;5054796;28;20041;-74
2023/08/12 05:46:48;;;;;;;23.75;15.15;;;19.40;99.90;;;;;;5047777;28;20053;-73
2023/08/12 05:49:14;;;;;;;19.35;14.32;;;19.50;99.90;;;;;;5056570;28;20049;-72
2023/08/12 05:51:41;;;;;;;18.98;14.45;;;19.60;99.90;;;;;;5056355;28;20096;-72
2023/08/12 05:54:07;;;;;;;27.95;14.52;;;19.60;99.90;;;;;;5054772;28;20119;-71
2023/08/12 05:56:32;;;;;;;22.88;16.63;;;19.70;99.90;;;;;;5056025;28;20063;-73
2023/08/12 05:58:58;;;;;;;25.83;15.95;;;19.80;99.90;;;;;;5056342;28;20528;-70
2023/08/12 06:01:24;;;;;;;18.80;14.27;;;19.90;99.90;;;;;;5040068;28;20486;-72
2023/08/12 06:03:50;;;;;;;22.85;16.08;;;20.00;99.90;;;;;;5055878;28;20052;-71
2023/08/12 06:06:15;;;;;;;19.60;15.80;;;20.00;99.90;;;;;;5048381;28;20128;-72
2023/08/12 06:08:41;;;;;;;22.48;16.42;;;20.10;99.90;;;;;;5055221;28;20060;-72
2023/08/12 06:11:07;;;;;;;26.60;16.70;;;20.20;99.90;;;;;;5054763;28;20053;-70
2023/08/12 06:13:33;;;;;;;25.08;16.15;;;20.30;99.90;;;;;;5040469;28;20603;-71
2023/08/12 06:15:59;;;;;;;20.35;15.70;;;20.40;99.90;;;;;;5052957;28;20077;-70
2023/08/12 06:18:25;;;;;;;18.00;15.07;;;20.60;99.90;;;;;;5059197;28;20040;-71
2023/08/12 06:20:50;;;;;;;19.83;15.45;;;20.80;99.90;;;;;;5042329;28;20508;-73
2023/08/12 06:23:16;;;;;;;22.58;15.40;;;21.00;99.90;;;;;;5059134;28;20049;-70
2023/08/12 06:25:42;;;;;;;18.40;14.40;;;21.20;99.90;;;;;;5042818;28;20056;-70
2023/08/12 06:28:09;;;;;;;17.80;14.30;;;21.40;99.90;;;;;;5059849;28;20124;-70
2023/08/12 06:30:36;;;;;;;17.42;13.57;;;21.60;99.90;;;;;;5042089;28;20316;-70
2023/08/12 06:33:01;;;;;;;22.33;14.55;;;21.60;99.90;;;;;;5058700;28;20513;-74
2023/08/12 06:35:27;;;;;;;15.88;13.13;;;21.70;99.90;;;;;;5059363;28;20466;-73
2023/08/12 06:37:53;;;;;;;16.25;13.93;;;21.60;99.90;;;;;;5058723;28;20094;-70
2023/08/12 06:40:19;;;;;;;17.90;14.57;;;24.10;99.90;;;;;;5058166;28;20048;-72
2023/08/12 06:42:45;;;;;;;20.23;14.55;;;21.60;99.90;;;;;;5058193;28;20132;-73
2023/08/12 06:45:11;;;;;;;17.17;12.98;;;21.50;99.90;;;;;;5059046;28;20045;-72
2023/08/12 06:47:37;;;;;;;16.40;13.55;;;21.50;99.90;;;;;;5057883;28;20149;-72
2023/08/12 06:50:03;;;;;;;22.55;16.00;;;21.50;99.90;;;;;;5042708;28;20132;-71
2023/08/12 06:52:28;;;;;;;19.08;15.65;;;21.40;99.90;;;;;;5041513;28;20482;-72
2023/08/12 06:54:54;;;;;;;16.55;13.18;;;21.40;99.90;;;;;;5059336;28;20048;-71
2023/08/12 06:57:20;;;;;;;17.80;13.82;;;21.40;99.90;;;;;;5059101;28;20366;-70
2023/08/12 06:59:46;;;;;;;20.48;14.98;;;21.40;99.90;;;;;;5059705;28;20517;-72
2023/08/12 07:02:12;;;;;;;21.00;15.20;;;21.40;99.90;;;;;;5058326;28;20048;-70
2023/08/12 07:04:38;;;;;;;18.15;14.38;;;21.40;99.90;;;;;;5059225;28;20165;-71
2023/08/12 07:07:03;;;;;;;21.10;16.50;;;21.40;99.90;;;;;;5041897;28;20113;-72
2023/08/12 07:09:29;;;;;;;18.58;15.15;;;21.40;99.90;;;;;;5059611;28;20048;-71
2023/08/12 07:11:55;;;;;;;24.85;16.13;;;21.40;99.90;;;;;;5058417;28;20054;-71
2023/08/12 07:14:21;;;;;;;23.35;16.25;;;21.40;99.90;;;;;;5059661;28;20060;-71
2023/08/12 07:16:46;;;;;;;27.33;15.82;;;21.40;99.90;;;;;;5058234;28;20611;-72
2023/08/12 07:19:12;;;;;;;18.73;15.80;;;21.30;99.90;;;;;;5059224;28;20083;-71
2023/08/12 07:21:38;;;;;;;18.05;14.02;;;21.30;99.90;;;;;;5042458;28;20054;-72
2023/08/12 07:24:04;;;;;;;19.98;16.30;;;21.20;99.90;;;;;;5058708;28;20071;-71
2023/08/12 07:26:30;;;;;;;21.65;16.27;;;21.20;99.90;;;;;;5057322;28;20079;-71
2023/08/12 07:28:56;;;;;;;21.80;16.35;;;21.20;99.90;;;;;;5042297;28;20143;-71
2023/08/12 07:31:22;;;;;;;25.35;17.20;;;21.20;99.90;;;;;;5057621;28;20072;-70
2023/08/12 07:33:48;;;;;;;27.13;18.40;;;21.20;99.90;;;;;;5042298;28;20139;-71
2023/08/12 07:36:13;;;;;;;21.58;17.27;;;21.20;99.90;;;;;;5057652;28;20059;-71
2023/08/12 07:38:39;;;;;;;25.40;18.85;;;21.10;99.90;;;;;;5058291;28;20056;-70
2023/08/12 07:41:05;;;;;;;23.92;17.50;;;21.10;99.90;;;;;;5058394;28;20421;-69
2023/08/12 07:43:31;;;;;;;26.90;18.30;;;21.10;99.90;;;;;;5042214;28;20045;-70
2023/08/12 07:45:57;;;;;;;27.45;20.00;;;18.10;99.90;;;;;;5058815;28;20058;-70
2023/08/12 07:48:22;;;;;;;27.63;19.13;;;18.90;99.90;;;;;;5050367;28;20217;-70
2023/08/12 07:50:57;;;;;;;24.30;18.58;;;21.10;99.90;;;;;;5057011;28;20041;-70
2023/08/12 07:53:23;;;;;;;24.13;19.17;;;21.00;99.90;;;;;;5041480;28;20154;-70
2023/08/12 07:55:49;;;;;;;22.25;16.17;;;21.00;99.90;;;;;;5041656;28;20131;-71
2023/08/12 07:58:15;;;;;;;27.73;19.58;;;21.00;99.90;;;;;;5058358;28;21341;-69
2023/08/12 08:00:41;;;;;;;25.77;19.77;;;21.10;99.90;;;;;;5058621;28;20044;-70
2023/08/12 08:03:07;;;;;;;22.05;17.80;;;21.00;99.90;;;;;;5042291;28;20160;-70
2023/08/12 08:05:32;;;;;;;25.58;20.17;;;21.00;99.90;;;;;;5048583;22;20053;-71
2023/08/12 08:07:58;;;;;;;24.85;20.27;;;21.00;99.90;;;;;;5058367;22;20060;-75
2023/08/12 08:10:24;;;;;;;31.38;23.38;;;21.00;99.90;;;;;;5058336;22;20884;-79
2023/08/12 08:12:50;;;;;;;26.60;21.67;;;21.00;99.90;;;;;;5037802;28;20711;-72
2023/08/12 08:15:16;;;;;;;26.52;22.00;;;20.90;99.90;;;;;;5038752;28;20059;-72
2023/08/12 08:17:43;;;;;;;27.92;23.30;;;20.90;99.90;;;;;;5037828;28;20156;-73
2023/08/12 08:20:10;;;;;;;31.33;24.75;;;20.90;99.90;;;;;;5037731;28;20041;-73
2023/08/12 08:22:36;;;;;;;32.38;24.25;;;20.90;99.90;;;;;;5037428;28;20056;-73
2023/08/12 08:25:02;;;;;;;30.10;23.70;;;20.90;99.90;;;;;;5037983;28;20047;-72
2023/08/12 08:27:28;;;;;;;32.13;23.73;;;20.90;99.90;;;;;;5037915;28;20059;-71
2023/08/12 08:29:53;;;;;;;28.77;24.90;;;20.90;99.90;;;;;;5037650;28;20045;-72
2023/08/12 08:32:19;;;;;;;31.73;24.83;;;20.90;99.90;;;;;;5032113;28;20435;-74
2023/08/12 08:34:45;;;;;;;31.75;25.85;;;20.90;99.90;;;;;;5020523;28;20049;-74
2023/08/12 08:37:11;;;;;;;29.70;24.63;;;20.90;99.90;;;;;;5019793;28;20511;-75
2023/08/12 08:39:36;;;;;;;32.40;22.98;;;20.90;99.90;;;;;;5037475;28;20169;-73
2023/08/12 08:42:05;;;;;;;26.23;21.10;;;20.90;99.90;;;;;;5037170;28;20049;-74
2023/08/12 08:44:33;;;;;;;31.15;23.08;;;20.90;99.90;;;;;;5037277;28;20056;-75
2023/08/12 08:47:01;;;;;;;24.75;22.10;;;20.90;99.90;;;;;;5037047;28;20059;-75
2023/08/12 08:49:28;;;;;;;23.40;20.70;;;20.90;99.90;;;;;;5037657;28;20056;-78
2023/08/12 08:51:54;;;;;;;26.77;21.40;;;20.90;99.90;;;;;;5020328;28;20457;-79
2023/08/12 08:54:20;;;;;;;29.42;23.45;;;20.80;99.90;;;;;;5020108;28;20041;-76
2023/08/12 08:56:47;;;;;;;28.77;22.73;;;20.80;99.90;;;;;;5036190;28;20049;-76
2023/08/12 08:59:13;;;;;;;31.73;23.80;;;20.90;99.90;;;;;;5047419;22;20064;-78
2023/08/12 09:01:41;;;;;;;27.90;21.40;;;20.80;99.90;;;;;;5024173;28;20053;-76
2023/08/12 09:04:08;;;;;;;28.13;22.23;;;20.80;99.90;;;;;;5041000;28;20055;-77
2023/08/12 09:06:37;;;;;;;25.00;20.80;;;20.80;99.90;;;;;;5023123;28;20490;-81
2023/08/12 09:09:05;;;;;;;31.50;22.75;;;20.80;99.90;;;;;;5041800;28;20521;-78
2023/08/12 09:11:33;;;;;;;34.75;24.83;;;23.00;99.90;;;;;;5041169;28;20571;-75
2023/08/12 09:13:59;;;;;;;29.80;23.42;;;20.60;99.90;;;;;;5041780;28;20059;-79
2023/08/12 09:16:24;;;;;;;34.30;23.13;;;20.60;99.90;;;;;;5041534;28;20052;-75
2023/08/12 09:18:55;;;;;;;31.10;24.05;;;20.50;99.90;;;;;;5041230;28;20231;-74
2023/08/12 09:21:21;;;;;;;33.50;22.97;;;20.40;99.90;;;;;;5037754;28;20098;-73
2023/08/12 09:23:47;;;;;;;30.08;21.42;;;23.40;99.90;;;;;;5044573;28;20048;-77
2023/08/12 09:26:15;;;;;;;27.75;21.50;;;20.30;99.90;;;;;;5018566;28;20048;-75
2023/08/12 09:28:45;;;;;;;28.85;19.92;;;18.70;99.90;;;;;;5039802;28;20048;-84
2023/08/12 09:31:25;;;;;;;25.45;19.55;;;20.20;99.90;;;;;;5022374;28;20059;-81
2023/08/12 09:33:51;;;;;;;26.38;17.77;;;20.10;99.90;;;;;;5040503;28;20048;-80
2023/08/12 09:36:17;;;;;;;17.85;13.70;;;20.10;99.90;;;;;;5041172;28;20056;-81
2023/08/12 09:38:44;;;;;;;17.90;13.73;;;20.10;99.90;;;;;;5024359;28;20051;-83
2023/08/12 09:41:10;;;;;;;17.42;12.38;;;20.00;99.90;;;;;;5024328;28;20098;-78
2023/08/12 09:43:43;;;;;;;26.65;12.43;;;20.00;99.90;;;;;;5041467;28;20049;-80
2023/08/12 09:46:13;;;;;;;14.45;9.10;;;19.90;99.90;;;;;;5039960;28;20473;-77
2023/08/12 09:48:39;;;;;;;19.98;10.50;;;19.90;99.90;;;;;;5028597;28;20067;-81
2023/08/12 09:51:06;;;;;;;13.25;9.13;;;19.90;99.90;;;;;;5043735;28;20541;-78
2023/08/12 09:53:33;;;;;;;20.52;10.75;;;19.80;99.90;;;;;;5043055;28;20080;-77
2023/08/12 09:56:11;;;;;;;14.85;9.55;;;19.80;99.90;;;;;;5023495;28;20577;-77
2023/08/12 09:58:39;;;;;;;12.55;8.95;;;19.80;99.90;;;;;;5042561;28;20414;-74
2023/08/12 10:01:07;;;;;;;10.15;8.68;;;19.90;99.90;;;;;;5047926;28;20354;-76
2023/08/12 10:03:34;;;;;;;15.18;9.50;;;19.90;99.90;;;;;;5043085;28;20067;-76
2023/08/12 10:06:01;;;;;;;17.50;9.82;;;19.90;99.90;;;;;;5028216;28;20048;-79
2023/08/12 10:08:28;;;;;;;15.43;9.20;;;19.90;99.90;;;;;;5044591;28;20056;-78
2023/08/12 10:10:55;;;;;;;15.55;10.50;;;19.80;99.90;;;;;;5039147;28;20381;-74
2023/08/12 10:13:24;;;;;;;12.30;9.27;;;19.80;99.90;;;;;;5046086;28;20102;-79
2023/08/12 10:15:50;;;;;;;14.77;9.43;;;19.90;99.90;;;;;;5043456;28;20044;-78
2023/08/12 10:18:18;;;;;;;16.58;12.10;;;19.90;99.90;;;;;;5041578;28;20048;-77
2023/08/12 10:20:44;;;;;;;18.52;11.75;;;19.90;99.90;;;;;;5042036;28;20120;-78
2023/08/12 10:23:17;;;;;;;20.05;12.73;;;19.90;99.90;;;;;;5044155;28;20121;-77
2023/08/12 10:25:43;;;;;;;20.20;11.55;;;19.90;99.90;;;;;;5025653;28;20064;-78
2023/08/12 10:28:10;;;;;;;14.80;11.35;;;19.90;99.90;;;;;;5046079;28;20049;-77
2023/08/12 10:30:36;;;;;;;14.70;10.40;;;20.00;99.90;;;;;;5025769;28;20056;-77
2023/08/12 10:33:03;;;;;;;15.20;10.20;;;20.00;99.90;;;;;;5043950;28;20037;-81
2023/08/12 10:35:49;;;;;;;12.27;8.50;;;20.00;99.90;;;;;;5020961;28;20059;-81
2023/08/12 10:38:20;;;;;;;12.68;8.32;;;20.00;99.90;;;;;;5011523;28;20052;-79
2023/08/12 10:40:47;;;;;;;15.38;7.47;;;20.00;99.90;;;;;;5026531;28;20120;-84
2023/08/12 10:43:14;;;;;;;8.98;7.22;;;19.90;99.90;;;;;;5028722;28;20156;-81
2023/08/12 10:45:52;;;;;;;11.13;8.18;;;20.00;99.90;;;;;;5039155;28;20060;-80
2023/08/12 10:48:19;;;;;;;13.35;7.95;;;20.00;99.90;;;;;;5037099;28;20780;-77
2023/08/12 10:50:49;;;;;;;8.77;7.30;;;20.00;99.90;;;;;;5027413;28;20711;-74
2023/08/12 10:53:49;;;;;;;14.38;8.82;;;20.00;99.90;;;;;;5019911;28;20045;-76
2023/08/12 10:56:15;;;;;;;11.98;7.53;;;20.10;99.90;;;;;;4993877;28;20057;-78
2023/08/12 10:58:45;;;;;;;18.40;9.75;;;20.10;99.90;;;;;;5043629;28;20059;-76
2023/08/12 11:01:18;;;;;;;18.92;9.43;;;20.20;99.90;;;;;;5043260;28;20049;-77
2023/08/12 11:03:45;;;;;;;12.48;8.85;;;20.30;99.90;;;;;;5042322;28;20087;-80
2023/08/12 11:06:11;;;;;;;13.75;8.93;;;20.40;99.90;;;;;;5041215;28;20559;-79
2023/08/12 11:08:45;;;;;;;11.95;9.32;;;20.50;99.90;;;;;;5043303;28;20767;-78
2023/08/12 11:11:25;;;;;;;18.00;9.25;;;20.60;99.90;;;;;;5042441;28;20088;-77
2023/08/12 11:13:57;;;;;;;13.07;8.25;;;20.80;99.90;;;;;;5041976;28;20513;-78
2023/08/12 11:16:43;;;;;;;8.98;7.70;;;20.90;99.90;;;;;;5043336;28;20094;-75
2023/08/12 11:19:09;;;;;;;12.40;8.48;;;21.20;99.90;;;;;;5037417;28;20032;-78
2023/08/12 11:21:36;;;;;;;9.48;6.65;;;21.30;99.90;;;;;;5042481;28;20454;-78
2023/08/12 11:24:02;;;;;;;8.32;4.85;;;21.40;99.90;;;;;;5039883;28;20044;-74
2023/08/12 11:26:28;;;;;;;7.40;5.68;;;21.60;99.90;;;;;;5026773;28;20056;-79
2023/08/12 11:28:54;;;;;;;8.10;5.75;;;21.50;99.90;;;;;;5045474;28;20048;-78
2023/08/12 11:31:22;;;;;;;7.65;4.32;;;21.70;99.90;;;;;;5047896;28;20044;-77
2023/08/12 11:33:48;;;;;;;5.07;4.03;;;21.70;99.90;;;;;;5024958;28;20063;-80
2023/08/12 11:36:15;;;;;;;7.18;4.72;;;21.70;99.90;;;;;;5041966;28;20076;-78
2023/08/12 11:38:43;;;;;;;19.85;5.97;;;21.60;99.90;;;;;;5041176;28;20056;-73
2023/08/12 11:41:09;;;;;;;6.53;4.05;;;21.60;99.90;;;;;;5039489;28;20057;-78
2023/08/12 11:43:34;;;;;;;7.18;3.92;;;21.50;99.90;;;;;;5024108;28;20170;-77
2023/08/12 11:46:00;;;;;;;22.63;5.40;;;21.50;99.90;;;;;;5041324;28;20106;-79
2023/08/12 11:48:29;;;;;;;4.18;3.00;;;21.30;99.90;;;;;;5041892;28;20502;-80
2023/08/12 11:50:56;;;;;;;3.53;2.78;;;21.20;99.90;;;;;;5041643;28;20052;-79
2023/08/12 11:53:21;;;;;;;3.03;2.33;;;21.10;99.90;;;;;;5025296;28;20227;-80
2023/08/12 11:55:47;;;;;;;3.50;1.50;;;21.00;99.90;;;;;;5042034;28;20825;-78
2023/08/12 11:58:18;;;;;;;2.75;1.50;;;20.90;99.90;;;;;;5024912;28;20064;-79
2023/08/12 12:00:46;;;;;;;2.60;1.20;;;20.80;99.90;;;;;;5040921;28;20164;-77
2023/08/12 12:03:12;;;;;;;3.30;0.50;;;20.80;99.90;;;;;;5025178;28;20287;-71
2023/08/12 12:05:37;;;;;;;2.25;0.90;;;20.80;99.90;;;;;;5041436;28;20055;-76
2023/08/12 12:08:05;;;;;;;1.77;0.52;;;20.80;99.90;;;;;;5041625;28;20044;-73
2023/08/12 12:10:32;;;;;;;1.42;0.60;;;20.80;99.90;;;;;;5024800;28;20072;-73
2023/08/12 12:12:59;;;;;;;1.67;0.68;;;20.80;99.90;;;;;;5041316;28;20060;-74
2023/08/12 12:15:25;;;;;;;1.88;0.55;;;20.90;99.90;;;;;;5042346;28;20052;-76
2023/08/12 12:17:51;;;;;;;1.10;0.40;;;20.90;99.90;;;;;;5048423;28;20041;-78
2023/08/12 12:20:18;;;;;;;1.60;0.50;;;21.00;99.90;;;;;;5041043;28;20044;-76
2023/08/12 12:22:45;;;;;;;1.05;0.50;;;21.10;99.90;;;;;;5040838;28;20063;-77
2023/08/12 12:25:16;;;;;;;3.20;0.43;;;21.30;99.90;;;;;;5040570;28;20059;-79
2023/08/12 12:27:43;;;;;;;3.97;0.50;;;21.40;99.90;;;;;;5043104;28;20048;-79
2023/08/12 12:30:11;;;;;;;1.63;0.60;;;21.70;99.90;;;;;;5023936;28;20044;-77
2023/08/12 12:32:37;;;;;;;2.03;0.60;;;21.80;99.90;;;;;;5041235;28;20406;-75